SLSA/SBL METAR and TAF weather

Enter ICAO airport designator
Station Type Date Time Source
SLSA METAR 2022/06/29 23:00 UTC NOAA

SLSA 292300Z 00000KT 8000 NSC 25/20 Q1013


Station Type Date Time Source
SLSA Decoded METAR 2022/06/29 23:00 UTC NOAA

Santa Ana, Bolivia (SLSA) 13-46S 065-26W
Jun 29, 2022 - 07:00 PM EDT / 2022.06.29 2300 UTC
Wind: Calm:0
Visibility: 4 mile(s):0
Temperature: 77 F (25 C)
Dew Point: 68 F (20 C)
Relative Humidity: 73%
Pressure (altimeter): 29.91 in. Hg (1013 hPa)
ob: SLSA 292300Z 00000KT 8000 NSC 25/20 Q1013
cycle: 23

Station Type Date Time Source
SLSA TAF 2009/01/07 11:00 UTC NOAA

METAR SLSA 071100Z 00000KT 9999 FEW020 BKN080 26/24 Q1009

Example: see airport list